PWSweather.com
Personal Weather Stations
Station Observations
IMAZOWIE6
WarszawaPL

WarszawaPL

Lat: 52.27957, Lon: 21.05489

Elevation: 100

Station Type: WS1080

http://stacjapogody.waw.pl/

High Low Average
Temperature 68.7°F20.4°C 47.5°F8.6°C 54.7°F12.6°C
Dew Point -165.9°F-109.9°C -168.1°F-111.2°C -167.3°F-110.7°C
Winds 4.0 mph 6.4 kmh Calm Calm 1.0 mph N1.6 kmh N
Wind Gusts 8.2 mph13.2 kmh -- 3.0 mph4.8 kmh
Humidity - - -
Pressure 29.27 in991.2 mb 29.13 in986.5 mb -
Precipitation 0.00 in0.0 mm - -
Hour Temp Dew Point Humidity Winds Wind Gusts Pressure Precip Precip Rate Daily Precip Total
12:06 AM 50.5°F10.3°C -167.7°F-110.9°C - 1.4 mph N2.3 kmh N 4.8 mph7.7 kmh 29.16 in987.5 mb 0.00 in0.0 mm 0.00 in0.0 mm 0.00 in0.0 mm
12:21 AM 50.5°F10.3°C -167.7°F-110.9°C - 1.4 mph N2.3 kmh N 4.0 mph6.4 kmh 29.16 in987.5 mb 0.00 in0.0 mm 0.00 in0.0 mm 0.00 in0.0 mm
12:36 AM 50.5°F10.3°C -167.7°F-110.9°C - 0.6 mph N1.0 kmh N 2.8 mph4.5 kmh 29.16 in987.5 mb 0.00 in0.0 mm 0.00 in0.0 mm 0.00 in0.0 mm
12:51 AM 50.2°F10.1°C -167.8°F-111.0°C - 0.6 mph N1.0 kmh N 2.0 mph3.2 kmh 29.16 in987.5 mb 0.00 in0.0 mm 0.00 in0.0 mm 0.00 in0.0 mm
01:06 AM 50.2°F10.1°C -167.8°F-111.0°C - 0.6 mph N1.0 kmh N 2.8 mph4.5 kmh 29.15 in987.1 mb 0.00 in0.0 mm 0.00 in0.0 mm 0.00 in0.0 mm
01:21 AM 50.4°F10.2°C -167.8°F-111.0°C - 0.6 mph N1.0 kmh N 2.8 mph4.5 kmh 29.15 in987.1 mb 0.00 in0.0 mm 0.00 in0.0 mm 0.00 in0.0 mm
01:36 AM 50.5°F10.3°C -167.7°F-110.9°C - 1.4 mph N2.3 kmh N 5.4 mph8.7 kmh 29.15 in987.1 mb 0.00 in0.0 mm 0.00 in0.0 mm 0.00 in0.0 mm
01:51 AM 50.7°F10.4°C -167.7°F-110.9°C - 0.6 mph N1.0 kmh N 2.0 mph3.2 kmh 29.15 in987.1 mb 0.00 in0.0 mm 0.00 in0.0 mm 0.00 in0.0 mm
02:06 AM 50.7°F10.4°C -167.7°F-110.9°C - 0.6 mph N1.0 kmh N 4.0 mph6.4 kmh 29.14 in986.8 mb 0.00 in0.0 mm 0.00 in0.0 mm 0.00 in0.0 mm
02:21 AM 50.7°F10.4°C -167.7°F-110.9°C - 2.0 mph N3.2 kmh N 4.0 mph6.4 kmh 29.14 in986.8 mb 0.00 in0.0 mm 0.00 in0.0 mm 0.00 in0.0 mm
02:36 AM 50.5°F10.3°C -167.7°F-110.9°C - 2.0 mph N3.2 kmh N 5.4 mph8.7 kmh 29.13 in986.5 mb 0.00 in0.0 mm 0.00 in0.0 mm 0.00 in0.0 mm
02:51 AM 50.4°F10.2°C -167.8°F-111.0°C - 0.6 mph N1.0 kmh N 2.8 mph4.5 kmh 29.13 in986.5 mb 0.00 in0.0 mm 0.00 in0.0 mm 0.00 in0.0 mm
03:06 AM 50.2°F10.1°C -167.8°F-111.0°C - 0.6 mph N1.0 kmh N 2.0 mph3.2 kmh 29.13 in986.5 mb 0.00 in0.0 mm 0.00 in0.0 mm 0.00 in0.0 mm
03:21 AM 49.8°F9.9°C -167.8°F-111.0°C - 2.0 mph N3.2 kmh N 4.8 mph7.7 kmh 29.13 in986.5 mb 0.00 in0.0 mm 0.00 in0.0 mm 0.00 in0.0 mm
03:36 AM 49.6°F9.8°C -167.8°F-111.0°C - 1.4 mph N2.3 kmh N 4.0 mph6.4 kmh 29.13 in986.5 mb 0.00 in0.0 mm 0.00 in0.0 mm 0.00 in0.0 mm
03:51 AM 49.8°F9.9°C -167.8°F-111.0°C - 1.4 mph N2.3 kmh N 3.4 mph5.5 kmh 29.13 in986.5 mb 0.00 in0.0 mm 0.00 in0.0 mm 0.00 in0.0 mm
04:06 AM 49.1°F9.5°C -167.9°F-111.1°C - 0.6 mph N1.0 kmh N 2.8 mph4.5 kmh 29.13 in986.5 mb 0.00 in0.0 mm 0.00 in0.0 mm 0.00 in0.0 mm
04:21 AM 49.3°F9.6°C -167.9°F-111.1°C - 2.0 mph N3.2 kmh N 3.4 mph5.5 kmh 29.13 in986.5 mb 0.00 in0.0 mm 0.00 in0.0 mm 0.00 in0.0 mm
04:36 AM 48.9°F9.4°C -167.9°F-111.1°C - 1.4 mph N2.3 kmh N 3.4 mph5.5 kmh 29.13 in986.5 mb 0.00 in0.0 mm 0.00 in0.0 mm 0.00 in0.0 mm
04:51 AM 48.7°F9.3°C -167.9°F-111.1°C - 1.4 mph N2.3 kmh N 4.0 mph6.4 kmh 29.13 in986.5 mb 0.00 in0.0 mm 0.00 in0.0 mm 0.00 in0.0 mm
05:06 AM 48.6°F9.2°C -167.9°F-111.1°C - 0.6 mph N1.0 kmh N 2.0 mph3.2 kmh 29.13 in986.5 mb 0.00 in0.0 mm 0.00 in0.0 mm 0.00 in0.0 mm
05:21 AM 48.2°F9.0°C -168.0°F-111.1°C - 1.4 mph N2.3 kmh N 4.8 mph7.7 kmh 29.13 in986.5 mb 0.00 in0.0 mm 0.00 in0.0 mm 0.00 in0.0 mm
05:36 AM 48.2°F9.0°C -168.0°F-111.1°C - 2.0 mph N3.2 kmh N 4.0 mph6.4 kmh 29.13 in986.5 mb 0.00 in0.0 mm 0.00 in0.0 mm 0.00 in0.0 mm
05:51 AM 48.2°F9.0°C -168.0°F-111.1°C - 2.0 mph N3.2 kmh N 5.4 mph8.7 kmh 29.13 in986.5 mb 0.00 in0.0 mm 0.00 in0.0 mm 0.00 in0.0 mm
06:06 AM 48.4°F9.1°C -168.0°F-111.1°C - 0.6 mph N1.0 kmh N 2.8 mph4.5 kmh 29.13 in986.5 mb 0.00 in0.0 mm 0.00 in0.0 mm 0.00 in0.0 mm
06:21 AM 48.2°F9.0°C -168.0°F-111.1°C - 2.0 mph N3.2 kmh N 4.8 mph7.7 kmh 29.13 in986.5 mb 0.00 in0.0 mm 0.00 in0.0 mm 0.00 in0.0 mm
06:36 AM 47.8°F8.8°C -168.0°F-111.1°C - 2.8 mph N4.5 kmh N 4.8 mph7.7 kmh 29.14 in986.8 mb 0.00 in0.0 mm 0.00 in0.0 mm 0.00 in0.0 mm
06:51 AM 48.4°F9.1°C -168.0°F-111.1°C - 1.4 mph N2.3 kmh N 4.0 mph6.4 kmh 29.14 in986.8 mb 0.00 in0.0 mm 0.00 in0.0 mm 0.00 in0.0 mm
07:06 AM 48.6°F9.2°C -167.9°F-111.1°C - 0.6 mph N1.0 kmh N 3.4 mph5.5 kmh 29.15 in987.1 mb 0.00 in0.0 mm 0.00 in0.0 mm 0.00 in0.0 mm
07:21 AM 49.8°F9.9°C -167.8°F-111.0°C - 0.6 mph N1.0 kmh N 2.0 mph3.2 kmh 29.15 in987.1 mb 0.00 in0.0 mm 0.00 in0.0 mm 0.00 in0.0 mm
07:36 AM 52.3°F11.3°C -167.6°F-110.9°C - 0.6 mph N1.0 kmh N 2.8 mph4.5 kmh 29.15 in987.1 mb 0.00 in0.0 mm 0.00 in0.0 mm 0.00 in0.0 mm
07:51 AM 57.4°F14.1°C -167.1°F-110.6°C - 0.6 mph N1.0 kmh N 2.8 mph4.5 kmh 29.15 in987.1 mb 0.00 in0.0 mm 0.00 in0.0 mm 0.00 in0.0 mm
08:06 AM 57.9°F14.4°C -167.0°F-110.6°C - 1.4 mph N2.3 kmh N 3.4 mph5.5 kmh 29.15 in987.1 mb 0.00 in0.0 mm 0.00 in0.0 mm 0.00 in0.0 mm
08:21 AM 61.5°F16.4°C -166.6°F-110.3°C - 2.8 mph N4.5 kmh N 6.8 mph10.9 kmh 29.15 in987.1 mb 0.00 in0.0 mm 0.00 in0.0 mm 0.00 in0.0 mm
08:36 AM 62.8°F17.1°C -166.5°F-110.3°C - 2.0 mph N3.2 kmh N 4.8 mph7.7 kmh 29.16 in987.5 mb 0.00 in0.0 mm 0.00 in0.0 mm 0.00 in0.0 mm
08:51 AM 64.4°F18.0°C -166.4°F-110.2°C - 1.4 mph N2.3 kmh N 4.0 mph6.4 kmh 29.16 in987.5 mb 0.00 in0.0 mm 0.00 in0.0 mm 0.00 in0.0 mm
09:06 AM 65.8°F18.8°C -166.2°F-110.1°C - 2.8 mph N4.5 kmh N 4.8 mph7.7 kmh 29.16 in987.5 mb 0.00 in0.0 mm 0.00 in0.0 mm 0.00 in0.0 mm
09:21 AM 67.8°F19.9°C -166.0°F-110.0°C - 1.4 mph N2.3 kmh N 2.0 mph3.2 kmh 29.17 in987.8 mb 0.00 in0.0 mm 0.00 in0.0 mm 0.00 in0.0 mm
09:36 AM 68.7°F20.4°C -165.9°F-109.9°C - 3.4 mph N5.5 kmh N 8.2 mph13.2 kmh 29.17 in987.8 mb 0.00 in0.0 mm 0.00 in0.0 mm 0.00 in0.0 mm
09:51 AM 66.7°F19.3°C -166.1°F-110.1°C - 3.4 mph N5.5 kmh N 5.4 mph8.7 kmh 29.17 in987.8 mb 0.00 in0.0 mm 0.00 in0.0 mm 0.00 in0.0 mm
10:06 AM 64.8°F18.2°C -166.3°F-110.2°C - 3.4 mph N5.5 kmh N 5.4 mph8.7 kmh 29.18 in988.1 mb 0.00 in0.0 mm 0.00 in0.0 mm 0.00 in0.0 mm
10:21 AM 63.5°F17.5°C -166.5°F-110.3°C - 2.8 mph N4.5 kmh N 6.2 mph10.0 kmh 29.18 in988.1 mb 0.00 in0.0 mm 0.00 in0.0 mm 0.00 in0.0 mm
10:36 AM 63.5°F17.5°C -166.5°F-110.3°C - 2.8 mph N4.5 kmh N 4.0 mph6.4 kmh 29.20 in988.8 mb 0.00 in0.0 mm 0.00 in0.0 mm 0.00 in0.0 mm
10:51 AM 64.6°F18.1°C -166.3°F-110.2°C - 2.0 mph N3.2 kmh N 4.0 mph6.4 kmh 29.21 in989.2 mb 0.00 in0.0 mm 0.00 in0.0 mm 0.00 in0.0 mm
11:06 AM 64.2°F17.9°C -166.4°F-110.2°C - 3.4 mph N5.5 kmh N 5.4 mph8.7 kmh 29.21 in989.2 mb 0.00 in0.0 mm 0.00 in0.0 mm 0.00 in0.0 mm
11:21 AM 62.8°F17.1°C -166.5°F-110.3°C - 0.6 mph N1.0 kmh N 3.4 mph5.5 kmh 29.21 in989.2 mb 0.00 in0.0 mm 0.00 in0.0 mm 0.00 in0.0 mm
11:36 AM 63.0°F17.2°C -166.5°F-110.3°C - 0.6 mph N1.0 kmh N 2.8 mph4.5 kmh 29.21 in989.2 mb 0.00 in0.0 mm 0.00 in0.0 mm 0.00 in0.0 mm
11:51 AM 62.8°F17.1°C -166.5°F-110.3°C - 2.0 mph N3.2 kmh N 5.4 mph8.7 kmh 29.21 in989.2 mb 0.00 in0.0 mm 0.00 in0.0 mm 0.00 in0.0 mm
12:06 PM 62.8°F17.1°C -166.5°F-110.3°C - 2.0 mph N3.2 kmh N 5.4 mph8.7 kmh 29.22 in989.5 mb 0.00 in0.0 mm 0.00 in0.0 mm 0.00 in0.0 mm
12:21 PM 63.7°F17.6°C -166.4°F-110.2°C - 2.0 mph N3.2 kmh N 4.8 mph7.7 kmh 29.22 in989.5 mb 0.00 in0.0 mm 0.00 in0.0 mm 0.00 in0.0 mm
12:36 PM 62.6°F17.0°C -166.5°F-110.3°C - 2.8 mph N4.5 kmh N 5.4 mph8.7 kmh 29.23 in989.8 mb 0.00 in0.0 mm 0.00 in0.0 mm 0.00 in0.0 mm
12:51 PM 61.5°F16.4°C -166.6°F-110.3°C - 3.4 mph N5.5 kmh N 7.4 mph11.9 kmh 29.22 in989.5 mb 0.00 in0.0 mm 0.00 in0.0 mm 0.00 in0.0 mm
01:06 PM 61.9°F16.6°C -166.6°F-110.3°C - 4.0 mph N6.4 kmh N 6.2 mph10.0 kmh 29.23 in989.8 mb 0.00 in0.0 mm 0.00 in0.0 mm 0.00 in0.0 mm
01:21 PM 62.1°F16.7°C -166.6°F-110.3°C - 1.4 mph N2.3 kmh N 3.4 mph5.5 kmh 29.23 in989.8 mb 0.00 in0.0 mm 0.00 in0.0 mm 0.00 in0.0 mm
01:36 PM 62.1°F16.7°C -166.6°F-110.3°C - 3.4 mph N5.5 kmh N 6.2 mph10.0 kmh 29.24 in990.2 mb 0.00 in0.0 mm 0.00 in0.0 mm 0.00 in0.0 mm
01:51 PM 61.7°F16.5°C -166.6°F-110.3°C - 4.0 mph N6.4 kmh N 7.4 mph11.9 kmh 29.24 in990.2 mb 0.00 in0.0 mm 0.00 in0.0 mm 0.00 in0.0 mm
02:06 PM 61.5°F16.4°C -166.6°F-110.3°C - 2.0 mph N3.2 kmh N 4.8 mph7.7 kmh 29.24 in990.2 mb 0.00 in0.0 mm 0.00 in0.0 mm 0.00 in0.0 mm
02:21 PM 61.3°F16.3°C -166.7°F-110.4°C - 2.8 mph N4.5 kmh N 5.4 mph8.7 kmh 29.24 in990.2 mb 0.00 in0.0 mm 0.00 in0.0 mm 0.00 in0.0 mm
02:36 PM 60.8°F16.0°C -166.7°F-110.4°C - 2.0 mph N3.2 kmh N 4.8 mph7.7 kmh 29.24 in990.2 mb 0.00 in0.0 mm 0.00 in0.0 mm 0.00 in0.0 mm
02:51 PM 60.1°F15.6°C -166.8°F-110.4°C - Calm Calm 1.4 mph2.3 kmh 29.24 in990.2 mb 0.00 in0.0 mm 0.00 in0.0 mm 0.00 in0.0 mm
03:06 PM 60.4°F15.8°C -166.8°F-110.4°C - 2.0 mph N3.2 kmh N 4.0 mph6.4 kmh 29.24 in990.2 mb 0.00 in0.0 mm 0.00 in0.0 mm 0.00 in0.0 mm
03:21 PM 59.9°F15.5°C -166.8°F-110.4°C - 2.0 mph N3.2 kmh N 4.0 mph6.4 kmh 29.24 in990.2 mb 0.00 in0.0 mm 0.00 in0.0 mm 0.00 in0.0 mm
03:36 PM 59.5°F15.3°C -166.8°F-110.4°C - 0.6 mph N1.0 kmh N 2.0 mph3.2 kmh 29.24 in990.2 mb 0.00 in0.0 mm 0.00 in0.0 mm 0.00 in0.0 mm
03:51 PM 59.2°F15.1°C -166.9°F-110.5°C - 0.6 mph N1.0 kmh N 2.0 mph3.2 kmh 29.24 in990.2 mb 0.00 in0.0 mm 0.00 in0.0 mm 0.00 in0.0 mm
04:06 PM 59.0°F15.0°C -166.9°F-110.5°C - 2.8 mph N4.5 kmh N 6.2 mph10.0 kmh 29.24 in990.2 mb 0.00 in0.0 mm 0.00 in0.0 mm 0.00 in0.0 mm
04:21 PM 58.1°F14.5°C -167.0°F-110.6°C - 0.6 mph N1.0 kmh N 2.8 mph4.5 kmh 29.24 in990.2 mb 0.00 in0.0 mm 0.00 in0.0 mm 0.00 in0.0 mm
04:36 PM 57.0°F13.9°C -167.1°F-110.6°C - Calm Calm 1.4 mph2.3 kmh 29.24 in990.2 mb 0.00 in0.0 mm 0.00 in0.0 mm 0.00 in0.0 mm
04:51 PM 56.1°F13.4°C -167.2°F-110.7°C - Calm Calm -- 29.24 in990.2 mb 0.00 in0.0 mm 0.00 in0.0 mm 0.00 in0.0 mm
05:06 PM 55.8°F13.2°C -167.2°F-110.7°C - Calm Calm 2.0 mph3.2 kmh 29.24 in990.2 mb 0.00 in0.0 mm 0.00 in0.0 mm 0.00 in0.0 mm
05:21 PM 54.7°F12.6°C -167.3°F-110.7°C - Calm Calm 1.4 mph2.3 kmh 29.25 in990.5 mb 0.00 in0.0 mm 0.00 in0.0 mm 0.00 in0.0 mm
05:36 PM 53.8°F12.1°C -167.4°F-110.8°C - Calm Calm -- 29.26 in990.9 mb 0.00 in0.0 mm 0.00 in0.0 mm 0.00 in0.0 mm
05:51 PM 53.4°F11.9°C -167.5°F-110.8°C - Calm Calm 2.0 mph3.2 kmh 29.26 in990.9 mb 0.00 in0.0 mm 0.00 in0.0 mm 0.00 in0.0 mm
06:06 PM 53.2°F11.8°C -167.5°F-110.8°C - Calm Calm 1.4 mph2.3 kmh 29.27 in991.2 mb 0.00 in0.0 mm 0.00 in0.0 mm 0.00 in0.0 mm
06:21 PM 52.3°F11.3°C -167.6°F-110.9°C - Calm Calm 0.6 mph1.0 kmh 29.26 in990.9 mb 0.00 in0.0 mm 0.00 in0.0 mm 0.00 in0.0 mm
06:36 PM 51.8°F11.0°C -167.6°F-110.9°C - Calm Calm -- 29.26 in990.9 mb 0.00 in0.0 mm 0.00 in0.0 mm 0.00 in0.0 mm
06:51 PM 51.6°F10.9°C -167.6°F-110.9°C - Calm Calm -- 29.26 in990.9 mb 0.00 in0.0 mm 0.00 in0.0 mm 0.00 in0.0 mm
07:06 PM 51.4°F10.8°C -167.7°F-110.9°C - Calm Calm -- 29.26 in990.9 mb 0.00 in0.0 mm 0.00 in0.0 mm 0.00 in0.0 mm
07:21 PM 51.4°F10.8°C -167.7°F-110.9°C - Calm Calm -- 29.26 in990.9 mb 0.00 in0.0 mm 0.00 in0.0 mm 0.00 in0.0 mm
07:36 PM 51.3°F10.7°C -167.7°F-110.9°C - Calm Calm -- 29.26 in990.9 mb 0.00 in0.0 mm 0.00 in0.0 mm 0.00 in0.0 mm
07:51 PM 51.3°F10.7°C -167.7°F-110.9°C - Calm Calm 0.6 mph1.0 kmh 29.26 in990.9 mb 0.00 in0.0 mm 0.00 in0.0 mm 0.00 in0.0 mm
08:06 PM 51.1°F10.6°C -167.7°F-110.9°C - Calm Calm 0.6 mph1.0 kmh 29.26 in990.9 mb 0.00 in0.0 mm 0.00 in0.0 mm 0.00 in0.0 mm
08:21 PM 51.3°F10.7°C -167.7°F-110.9°C - Calm Calm -- 29.26 in990.9 mb 0.00 in0.0 mm 0.00 in0.0 mm 0.00 in0.0 mm
08:36 PM 51.1°F10.6°C -167.7°F-110.9°C - Calm Calm -- 29.26 in990.9 mb 0.00 in0.0 mm 0.00 in0.0 mm 0.00 in0.0 mm
08:51 PM 50.0°F10.0°C -167.8°F-111.0°C - Calm Calm -- 29.25 in990.5 mb 0.00 in0.0 mm 0.00 in0.0 mm 0.00 in0.0 mm
09:06 PM 49.1°F9.5°C -167.9°F-111.1°C - Calm Calm -- 29.25 in990.5 mb 0.00 in0.0 mm 0.00 in0.0 mm 0.00 in0.0 mm
09:21 PM 49.3°F9.6°C -167.9°F-111.1°C - Calm Calm -- 29.25 in990.5 mb 0.00 in0.0 mm 0.00 in0.0 mm 0.00 in0.0 mm
09:36 PM 48.7°F9.3°C -167.9°F-111.1°C - Calm Calm -- 29.24 in990.2 mb 0.00 in0.0 mm 0.00 in0.0 mm 0.00 in0.0 mm
09:51 PM 48.4°F9.1°C -168.0°F-111.1°C - Calm Calm -- 29.24 in990.2 mb 0.00 in0.0 mm 0.00 in0.0 mm 0.00 in0.0 mm
10:06 PM 48.2°F9.0°C -168.0°F-111.1°C - Calm Calm -- 29.24 in990.2 mb 0.00 in0.0 mm 0.00 in0.0 mm 0.00 in0.0 mm
10:21 PM 48.0°F8.9°C -168.0°F-111.1°C - Calm Calm 1.4 mph2.3 kmh 29.24 in990.2 mb 0.00 in0.0 mm 0.00 in0.0 mm 0.00 in0.0 mm
10:36 PM 47.5°F8.6°C -168.1°F-111.2°C - Calm Calm -- 29.24 in990.2 mb 0.00 in0.0 mm 0.00 in0.0 mm 0.00 in0.0 mm
10:51 PM 47.5°F8.6°C -168.1°F-111.2°C - Calm Calm -- 29.23 in989.8 mb 0.00 in0.0 mm 0.00 in0.0 mm 0.00 in0.0 mm
11:06 PM 48.0°F8.9°C -168.0°F-111.1°C - Calm Calm -- 29.23 in989.8 mb 0.00 in0.0 mm 0.00 in0.0 mm 0.00 in0.0 mm
11:21 PM 48.2°F9.0°C -168.0°F-111.1°C - Calm Calm -- 29.22 in989.5 mb 0.00 in0.0 mm 0.00 in0.0 mm 0.00 in0.0 mm
11:36 PM 48.6°F9.2°C -167.9°F-111.1°C - Calm Calm -- 29.22 in989.5 mb 0.00 in0.0 mm 0.00 in0.0 mm 0.00 in0.0 mm
11:51 PM 48.6°F9.2°C -167.9°F-111.1°C - Calm Calm -- 29.21 in989.2 mb 0.00 in0.0 mm 0.00 in0.0 mm 0.00 in0.0 mm